Time;durP1;ratioP1;P1;durP2;ratioP2;P2;SDS_P1;SDS_P2;PMS_P1;PMS_P2;Temp;Humidity;BMP_temperature;BMP_pressure;BME280_temperature;BME280_humidity;BME280_pressure;Samples;Min_cycle;Max_cycle;Signal;HPM_P1;HPM_P2
2022/10/18 05:54:38;;;;;;;3.75;1.60;;;15.60;77.00;;;;;;4717106;30;20085;-75
2022/10/18 05:57:04;;;;;;;5.90;1.70;;;15.70;77.30;;;;;;4719183;30;20098;-76
2022/10/18 05:59:29;;;;;;;6.57;2.53;;;15.70;77.30;;;;;;4719287;30;20049;-73
2022/10/18 06:01:55;;;;;;;6.88;1.95;;;15.80;77.40;;;;;;4719173;30;20484;-72
2022/10/18 06:04:24;;;;;;;9.88;4.47;;;15.80;77.70;;;;;;4717594;30;20049;-73
2022/10/18 06:06:50;;;;;;;16.83;3.67;;;15.90;78.60;;;;;;4732846;30;20065;-75
2022/10/18 06:09:16;;;;;;;12.25;3.33;;;15.90;79.10;;;;;;4719100;30;20424;-74
2022/10/18 06:11:42;;;;;;;9.57;3.28;;;15.90;79.50;;;;;;4719336;30;20049;-74
2022/10/18 06:14:08;;;;;;;11.75;4.07;;;16.00;79.80;;;;;;4719259;30;20465;-75
2022/10/18 06:16:34;;;;;;;8.75;2.92;;;16.00;80.60;;;;;;4720128;30;20112;-75
2022/10/18 06:19:00;;;;;;;9.63;2.70;;;16.10;81.70;;;;;;4722674;30;20111;-75
2022/10/18 06:21:26;;;;;;;11.80;3.30;;;16.10;81.50;;;;;;4722775;30;20057;-77
2022/10/18 06:23:54;;;;;;;14.13;3.28;;;16.20;81.10;;;;;;4721762;30;20477;-78
2022/10/18 06:26:21;;;;;;;9.05;3.10;;;16.30;81.20;;;;;;4722395;30;20119;-76
2022/10/18 06:28:47;;;;;;;9.20;3.08;;;16.30;81.20;;;;;;4722545;30;20048;-77
2022/10/18 06:31:12;;;;;;;13.52;3.17;;;16.40;81.00;;;;;;4722890;30;20053;-76
2022/10/18 06:33:38;;;;;;;11.23;3.42;;;16.50;81.00;;;;;;4722824;30;20424;-76
2022/10/18 06:36:31;;;;;;;10.82;3.13;;;16.50;81.00;;;;;;4722078;30;20374;-76
2022/10/18 06:38:58;;;;;;;13.43;2.70;;;16.60;80.80;;;;;;4718862;30;20065;-77
2022/10/18 06:41:24;;;;;;;8.13;2.50;;;16.70;80.80;;;;;;4722108;30;20136;-78
2022/10/18 06:43:53;;;;;;;10.30;3.03;;;16.80;80.60;;;;;;4720881;30;20151;-75
2022/10/18 06:46:20;;;;;;;8.75;2.63;;;16.80;80.80;;;;;;4705766;30;20060;-76
2022/10/18 06:48:46;;;;;;;9.95;2.30;;;16.80;80.70;;;;;;4721996;30;20096;-75
2022/10/18 06:51:12;;;;;;;9.27;2.63;;;16.80;80.70;;;;;;4720779;30;20092;-76
2022/10/18 06:53:39;;;;;;;11.90;2.55;;;16.80;80.30;;;;;;4733654;30;20380;-79
2022/10/18 06:56:13;;;;;;;13.98;3.33;;;16.80;79.70;;;;;;4739420;30;20060;-77
2022/10/18 06:58:39;;;;;;;11.35;3.00;;;16.80;79.60;;;;;;4728885;30;20040;-74
2022/10/18 07:01:14;;;;;;;12.98;2.80;;;16.80;80.20;;;;;;4739672;30;20501;-77
2022/10/18 07:03:41;;;;;;;14.80;3.08;;;16.80;80.60;;;;;;4739432;30;20053;-80
2022/10/18 07:06:10;;;;;;;13.80;2.75;;;16.80;80.90;;;;;;4739124;30;20122;-77
2022/10/18 07:08:36;;;;;;;15.77;2.78;;;16.90;81.30;;;;;;4739541;30;20126;-77
2022/10/18 07:11:03;;;;;;;15.07;2.70;;;16.80;81.80;;;;;;4739772;30;20126;-76
2022/10/18 07:13:30;;;;;;;12.30;3.25;;;16.90;82.20;;;;;;4738901;30;20048;-77
2022/10/18 07:16:09;;;;;;;7.60;2.80;;;16.80;82.40;;;;;;4733693;30;20056;-77
2022/10/18 07:18:37;;;;;;;13.52;2.75;;;16.90;82.20;;;;;;4755231;30;20080;-78
2022/10/18 07:21:05;;;;;;;8.95;2.22;;;16.90;81.80;;;;;;4756039;30;20048;-77
2022/10/18 07:23:33;;;;;;;8.40;1.92;;;16.90;80.70;;;;;;4741503;30;20056;-77
2022/10/18 07:26:00;;;;;;;6.72;1.50;;;16.90;79.30;;;;;;4745755;30;20053;-77
2022/10/18 07:28:26;;;;;;;7.80;1.92;;;16.90;78.10;;;;;;4738807;30;20056;-82
2022/10/18 07:30:52;;;;;;;5.72;1.40;;;16.80;77.10;;;;;;4737942;30;20063;-82
2022/10/18 07:33:19;;;;;;;11.05;2.35;;;16.80;76.40;;;;;;4748989;30;20056;-74
2022/10/18 07:35:45;;;;;;;7.25;1.42;;;16.80;76.00;;;;;;4757466;30;20369;-75
2022/10/18 07:38:11;;;;;;;13.15;2.30;;;16.70;75.70;;;;;;4756874;30;20140;-74
2022/10/18 07:40:37;;;;;;;12.10;1.90;;;16.70;75.70;;;;;;4749968;30;20459;-74
2022/10/18 07:43:03;;;;;;;8.93;1.80;;;16.70;75.40;;;;;;4738650;30;20380;-73
2022/10/18 07:45:29;;;;;;;11.93;1.98;;;16.70;75.20;;;;;;4738824;30;20207;-75
2022/10/18 07:47:55;;;;;;;10.13;1.85;;;16.70;75.10;;;;;;4740782;30;20384;-74
2022/10/18 07:50:21;;;;;;;10.80;2.30;;;16.70;75.20;;;;;;4754398;30;20550;-74
2022/10/18 07:52:47;;;;;;;12.73;2.65;;;16.70;75.50;;;;;;4742424;30;20092;-82
2022/10/18 07:55:13;;;;;;;15.13;2.45;;;16.70;75.70;;;;;;4738820;30;20064;-80
2022/10/18 07:57:39;;;;;;;17.65;2.90;;;16.70;75.90;;;;;;4723138;30;20059;-74
2022/10/18 08:00:05;;;;;;;14.07;2.42;;;16.70;76.20;;;;;;4738631;30;20044;-76
2022/10/18 08:02:31;;;;;;;12.68;2.95;;;16.70;76.60;;;;;;4722991;30;20224;-75
2022/10/18 08:04:56;;;;;;;9.40;2.17;;;16.70;76.70;;;;;;4741289;30;20161;-75
2022/10/18 08:07:22;;;;;;;14.00;1.95;;;16.80;76.80;;;;;;4756927;30;20117;-75
2022/10/18 08:09:48;;;;;;;20.23;1.98;;;16.70;76.80;;;;;;4756532;30;20054;-75
2022/10/18 08:12:14;;;;;;;13.80;2.17;;;16.80;77.00;;;;;;4756432;30;20067;-75
2022/10/18 08:14:40;;;;;;;20.92;2.67;;;16.80;77.10;;;;;;4756385;30;20056;-76
2022/10/18 08:17:06;;;;;;;18.13;3.42;;;16.80;77.10;;;;;;4738892;30;20089;-77
2022/10/18 08:19:31;;;;;;;17.38;2.75;;;16.80;77.20;;;;;;4738429;30;20098;-74
2022/10/18 08:21:57;;;;;;;13.20;1.90;;;16.80;77.00;;;;;;4738441;30;20067;-75
2022/10/18 08:24:23;;;;;;;10.25;1.63;;;16.80;76.90;;;;;;4737595;30;20515;-75
2022/10/18 08:26:49;;;;;;;17.98;2.97;;;16.80;76.80;;;;;;4737611;30;20173;-77
2022/10/18 08:29:15;;;;;;;15.45;2.13;;;16.80;76.80;;;;;;4738538;30;20049;-75
2022/10/18 08:31:40;;;;;;;19.05;2.88;;;16.70;76.80;;;;;;4738070;30;20432;-74
2022/10/18 08:34:06;;;;;;;21.15;2.22;;;16.70;76.90;;;;;;4738280;30;20049;-76
2022/10/18 08:36:32;;;;;;;20.13;3.33;;;16.70;76.80;;;;;;4737768;30;20060;-75
2022/10/18 08:38:58;;;;;;;14.05;2.58;;;16.80;77.00;;;;;;4737918;30;20053;-74
2022/10/18 08:41:36;;;;;;;20.02;3.47;;;16.70;76.90;;;;;;4738217;30;20472;-74
2022/10/18 08:44:19;;;;;;;20.05;2.65;;;16.80;77.10;;;;;;4737638;30;20140;-73
2022/10/18 08:46:48;;;;;;;12.52;2.78;;;16.80;77.50;;;;;;4737724;30;20067;-73
2022/10/18 08:49:27;;;;;;;15.23;2.50;;;16.80;77.40;;;;;;4722647;30;20056;-72
2022/10/18 08:51:55;;;;;;;13.52;2.08;;;16.80;77.40;;;;;;4737625;30;20056;-73
2022/10/18 08:54:28;;;;;;;12.13;2.40;;;16.80;77.30;;;;;;4737171;30;20063;-74
2022/10/18 08:57:03;;;;;;;12.02;2.42;;;16.80;77.30;;;;;;4737584;30;20082;-72
2022/10/18 08:59:40;;;;;;;10.50;2.00;;;16.80;77.30;;;;;;4737857;30;20084;-73
2022/10/18 09:02:09;;;;;;;12.10;2.45;;;16.80;77.30;;;;;;4737720;30;20060;-74
2022/10/18 09:04:54;;;;;;;13.52;1.75;;;16.90;77.40;;;;;;4737435;30;20407;-74
2022/10/18 09:07:20;;;;;;;10.65;1.55;;;16.90;77.40;;;;;;4720271;30;20389;-74
2022/10/18 09:09:58;;;;;;;4.53;1.27;;;16.90;77.40;;;;;;4720214;30;20091;-73
2022/10/18 09:12:45;;;;;;;12.77;1.98;;;16.90;77.40;;;;;;4719143;30;20076;-72
2022/10/18 09:15:39;;;;;;;9.18;1.40;;;16.90;77.50;;;;;;4721044;30;20057;-73
2022/10/18 09:18:07;;;;;;;5.57;1.60;;;17.00;77.50;;;;;;4737731;30;20056;-73
2022/10/18 09:20:45;;;;;;;5.07;0.90;;;17.00;77.40;;;;;;4737514;30;20060;-71
2022/10/18 09:23:19;;;;;;;9.98;2.03;;;17.00;77.50;;;;;;4737246;30;20057;-74
2022/10/18 09:25:55;;;;;;;6.90;1.88;;;17.00;77.50;;;;;;4747851;30;20053;-73
2022/10/18 09:28:29;;;;;;;7.13;1.33;;;17.00;77.50;;;;;;4718589;30;20064;-72
2022/10/18 09:31:15;;;;;;;6.65;1.30;;;17.00;77.50;;;;;;4719675;30;20075;-72
2022/10/18 09:33:52;;;;;;;4.68;1.17;;;17.00;77.60;;;;;;4719438;30;20053;-75
2022/10/18 09:36:21;;;;;;;5.05;1.40;;;17.00;77.50;;;;;;4726331;30;20079;-72
2022/10/18 09:38:51;;;;;;;6.40;1.23;;;17.00;77.60;;;;;;4737132;30;20060;-72
2022/10/18 09:41:46;;;;;;;4.28;1.27;;;17.00;77.60;;;;;;4737343;30;20330;-72
2022/10/18 09:44:19;;;;;;;;;;;17.10;77.70;;;;;;4736291;30;20052;-72
2022/10/18 09:47:14;;;;;;;7.28;1.60;;;17.10;77.90;;;;;;4736809;30;19934;-73
2022/10/18 09:49:44;;;;;;;13.48;1.90;;;17.10;77.90;;;;;;4735837;30;20056;-77
2022/10/18 09:52:22;;;;;;;10.98;2.05;;;17.10;78.10;;;;;;4734938;30;20421;-73
2022/10/18 09:54:55;;;;;;;9.43;1.40;;;17.10;78.10;;;;;;4736780;30;20056;-74
2022/10/18 09:57:41;;;;;;;7.15;1.67;;;17.10;78.10;;;;;;4720867;30;20059;-73
2022/10/18 10:00:19;;;;;;;8.63;1.67;;;17.10;78.40;;;;;;4736207;30;20063;-74
2022/10/18 10:02:45;;;;;;;12.60;1.98;;;17.10;78.70;;;;;;4736474;30;20048;-73
2022/10/18 10:05:13;;;;;;;8.00;1.55;;;17.10;78.70;;;;;;4736573;30;20063;-73
2022/10/18 10:07:46;;;;;;;12.75;1.50;;;17.10;78.60;;;;;;4721595;30;20052;-73
2022/10/18 10:10:25;;;;;;;8.63;1.58;;;17.10;78.60;;;;;;4736810;30;20056;-73
2022/10/18 10:13:01;;;;;;;11.77;1.80;;;17.20;78.40;;;;;;4736291;30;20049;-75
2022/10/18 10:15:28;;;;;;;9.20;1.75;;;17.20;78.10;;;;;;4736631;30;20059;-75
2022/10/18 10:18:04;;;;;;;11.25;1.90;;;17.20;77.90;;;;;;4736436;30;20056;-73
2022/10/18 10:20:43;;;;;;;9.18;1.60;;;17.20;77.90;;;;;;4736842;30;20052;-74
2022/10/18 10:23:22;;;;;;;11.20;1.52;;;17.20;78.20;;;;;;4736440;30;20057;-75
2022/10/18 10:25:52;;;;;;;14.07;1.95;;;17.20;78.50;;;;;;4736572;30;20056;-75
2022/10/18 10:28:22;;;;;;;12.15;2.30;;;17.20;78.60;;;;;;4736178;30;20503;-73
2022/10/18 10:30:48;;;;;;;7.18;1.73;;;17.20;78.70;;;;;;4736912;30;20052;-75
2022/10/18 10:33:33;;;;;;;11.85;1.60;;;17.20;78.50;;;;;;4736446;30;20059;-74
2022/10/18 10:36:01;;;;;;;15.40;1.98;;;17.20;78.30;;;;;;4736669;30;20052;-73
2022/10/18 10:38:29;;;;;;;11.55;2.15;;;17.20;78.30;;;;;;4736265;30;20067;-73
2022/10/18 10:40:56;;;;;;;8.95;2.05;;;17.20;78.10;;;;;;4736032;30;20224;-74
2022/10/18 10:43:29;;;;;;;14.35;2.13;;;17.20;77.90;;;;;;4736045;30;20488;-74
2022/10/18 10:46:06;;;;;;;7.25;1.85;;;17.20;77.60;;;;;;4735990;30;20053;-73
2022/10/18 10:48:46;;;;;;;10.77;1.35;;;17.20;77.20;;;;;;4735781;30;20064;-74
2022/10/18 10:51:13;;;;;;;9.05;1.98;;;17.20;77.10;;;;;;4735865;30;20049;-80
2022/10/18 10:54:10;;;;;;;7.40;1.63;;;17.20;76.90;;;;;;4736187;30;20068;-76
2022/10/18 10:56:48;;;;;;;10.90;1.77;;;17.20;76.40;;;;;;4736194;30;20067;-78
2022/10/18 10:59:17;;;;;;;11.45;1.65;;;17.20;76.50;;;;;;4735993;30;20143;-79
2022/10/18 11:01:44;;;;;;;14.32;1.65;;;17.20;76.50;;;;;;4736573;30;20056;-77
2022/10/18 11:04:27;;;;;;;11.50;2.03;;;17.20;76.50;;;;;;4738682;30;20068;-77
2022/10/18 11:07:42;;;;;;;15.57;2.42;;;17.20;76.40;;;;;;4745857;30;20049;-82
2022/10/18 11:10:19;;;;;;;9.55;1.95;;;17.20;76.50;;;;;;4674951;30;20559;-80
2022/10/18 11:13:13;;;;;;;9.15;1.63;;;17.20;76.30;;;;;;4738675;30;20041;-74
2022/10/18 11:15:44;;;;;;;24.42;3.20;;;17.20;76.10;;;;;;4757103;30;20052;-73
2022/10/18 11:18:20;;;;;;;18.83;2.15;;;17.20;76.20;;;;;;4741022;30;20472;-79
2022/10/18 11:21:15;;;;;;;16.10;2.40;;;17.20;75.80;;;;;;4747214;30;20094;-75
2022/10/18 11:23:42;;;;;;;15.50;3.10;;;17.20;75.60;;;;;;4757013;30;20087;-77
2022/10/18 11:26:11;;;;;;;14.35;1.73;;;17.20;75.50;;;;;;4756854;30;20060;-76
2022/10/18 11:28:57;;;;;;;16.00;2.28;;;17.10;75.40;;;;;;4754975;30;20090;-75
2022/10/18 11:31:41;;;;;;;15.75;1.85;;;17.20;75.60;;;;;;4726920;30;20044;-75
2022/10/18 11:34:38;;;;;;;18.42;2.60;;;17.20;75.90;;;;;;4723986;30;20053;-76
2022/10/18 11:37:26;;;;;;;12.48;2.58;;;17.20;75.80;;;;;;4723292;30;20496;-76
2022/10/18 11:40:22;;;;;;;8.55;1.80;;;17.20;76.10;;;;;;4739210;30;20045;-76
2022/10/18 11:43:19;;;;;;;12.40;2.47;;;17.20;76.20;;;;;;4738745;30;20349;-77
2022/10/18 11:46:13;;;;;;;10.18;2.00;;;17.20;76.30;;;;;;4738770;30;20048;-75
2022/10/18 11:48:57;;;;;;;11.57;1.95;;;17.20;76.50;;;;;;4739076;30;20053;-76
2022/10/18 11:51:50;;;;;;;9.43;1.73;;;17.20;76.60;;;;;;4738459;30;20048;-77
2022/10/18 11:54:30;;;;;;;10.03;2.03;;;17.20;76.60;;;;;;4722989;30;20060;-77
2022/10/18 11:57:04;;;;;;;9.93;1.70;;;17.20;76.60;;;;;;4738455;30;20307;-77
2022/10/18 11:59:58;;;;;;;8.85;1.73;;;17.20;76.70;;;;;;4738258;30;20052;-76
2022/10/18 12:02:27;;;;;;;9.45;1.98;;;17.20;76.70;;;;;;4738216;30;20048;-77
2022/10/18 12:11:51;;;;;;;13.30;2.10;;;17.20;76.30;;;;;;4736446;30;20110;-76
2022/10/18 12:14:56;;;;;;;11.20;2.15;;;17.20;75.90;;;;;;4736775;30;20546;-82
2022/10/18 12:17:38;;;;;;;9.40;1.48;;;17.20;75.40;;;;;;4737194;30;20051;-76
2022/10/18 12:20:22;;;;;;;9.23;1.15;;;17.20;75.30;;;;;;4737400;30;20044;-77
2022/10/18 12:23:04;;;;;;;6.97;1.27;;;17.20;75.50;;;;;;4719319;30;20488;-76
2022/10/18 12:25:35;;;;;;;10.60;1.73;;;17.20;75.70;;;;;;4720206;30;20465;-72
2022/10/18 12:28:19;;;;;;;8.38;1.38;;;17.20;75.90;;;;;;4720475;30;20068;-78
2022/10/18 12:30:48;;;;;;;;;;;17.20;76.00;;;;;;4724784;30;20100;-77
2022/10/18 12:33:28;;;;;;;6.03;1.85;;;17.20;76.30;;;;;;4738020;30;19937;-81
2022/10/18 12:36:22;;;;;;;10.27;1.70;;;17.20;75.40;;;;;;4737193;30;20123;-84
2022/10/18 12:38:55;;;;;;;9.73;2.00;;;17.20;74.00;;;;;;4736755;30;20060;-83
2022/10/18 12:41:25;;;;;;;;;;;17.10;74.20;;;;;;4722337;30;20044;-80
2022/10/18 12:43:54;;;;;;;12.77;2.08;;;17.00;74.50;;;;;;4737859;30;19923;-80
2022/10/18 12:46:20;;;;;;;9.88;2.47;;;17.10;74.40;;;;;;4737700;30;20080;-80
2022/10/18 12:49:03;;;;;;;10.63;1.77;;;17.10;74.50;;;;;;4722866;30;20084;-79
2022/10/18 12:51:29;;;;;;;6.63;1.13;;;17.10;74.50;;;;;;4737627;30;20049;-77
2022/10/18 12:54:01;;;;;;;6.82;1.63;;;17.10;74.60;;;;;;4736411;30;20139;-79
2022/10/18 12:56:27;;;;;;;6.82;1.10;;;17.10;74.40;;;;;;4737062;30;20388;-75
2022/10/18 12:59:12;;;;;;;7.65;1.63;;;17.10;74.60;;;;;;4737894;30;20139;-80
2022/10/18 13:02:04;;;;;;;12.52;1.90;;;17.10;74.50;;;;;;4721378;30;20064;-78
2022/10/18 13:04:31;;;;;;;9.65;1.48;;;17.10;74.50;;;;;;4729533;30;20503;-79
2022/10/18 13:06:57;;;;;;;8.23;1.10;;;17.10;74.40;;;;;;4736633;30;20531;-74
2022/10/18 13:09:26;;;;;;;7.35;1.27;;;17.20;74.60;;;;;;4737448;30;20045;-76
2022/10/18 13:12:18;;;;;;;8.52;1.20;;;17.20;74.70;;;;;;4737185;30;20131;-75
2022/10/18 13:14:43;;;;;;;8.73;1.50;;;17.20;74.80;;;;;;4736917;30;20045;-75
2022/10/18 13:17:30;;;;;;;8.07;1.65;;;17.20;74.90;;;;;;4737111;30;20436;-74
2022/10/18 13:20:18;;;;;;;6.90;1.23;;;17.20;75.10;;;;;;4737411;30;20369;-73
2022/10/18 13:23:07;;;;;;;8.45;1.60;;;17.20;75.30;;;;;;4736681;30;20132;-73
2022/10/18 13:25:39;;;;;;;8.27;1.33;;;17.20;75.70;;;;;;4736804;30;20088;-72
2022/10/18 13:28:17;;;;;;;11.45;1.27;;;17.30;74.60;;;;;;4722069;30;20068;-73
2022/10/18 13:31:13;;;;;;;13.35;1.60;;;17.20;74.40;;;;;;4736731;30;20184;-73
2022/10/18 13:33:40;;;;;;;8.98;1.85;;;17.20;74.20;;;;;;4736705;30;20060;-75
2022/10/18 13:36:29;;;;;;;14.02;2.10;;;17.20;74.30;;;;;;4718403;30;20056;-75
2022/10/18 13:38:58;;;;;;;13.25;2.25;;;17.30;74.40;;;;;;4736380;30;20072;-79
2022/10/18 13:41:42;;;;;;;13.60;2.10;;;17.30;74.40;;;;;;4736903;30;20052;-79
2022/10/18 13:44:22;;;;;;;8.02;1.80;;;17.30;74.20;;;;;;4736915;30;20076;-79
2022/10/18 13:46:48;;;;;;;8.55;1.33;;;17.20;73.00;;;;;;4735749;30;20407;-81
2022/10/18 13:49:39;;;;;;;7.90;1.85;;;17.20;72.70;;;;;;4735592;30;20048;-79
2022/10/18 13:52:29;;;;;;;6.97;1.35;;;17.20;72.70;;;;;;4736362;30;20076;-85
2022/10/18 13:55:39;;;;;;;10.00;1.85;;;17.20;72.80;;;;;;4735664;30;20064;-80
2022/10/18 13:58:31;;;;;;;7.32;1.52;;;17.20;72.80;;;;;;4723787;30;20052;-80
2022/10/18 14:01:29;;;;;;;7.13;1.55;;;17.20;73.00;;;;;;4737474;30;20064;-79
2022/10/18 14:04:09;;;;;;;7.72;1.60;;;17.20;72.90;;;;;;4754195;30;20048;-81
2022/10/18 14:06:39;;;;;;;6.60;1.73;;;17.20;73.00;;;;;;4753301;30;20485;-77
2022/10/18 14:09:19;;;;;;;8.88;1.90;;;17.20;73.00;;;;;;4754299;30;20119;-76
2022/10/18 14:12:07;;;;;;;5.20;1.30;;;17.20;73.20;;;;;;4753987;30;20636;-74
2022/10/18 14:14:48;;;;;;;7.05;2.00;;;17.20;73.70;;;;;;4754541;30;20048;-74
2022/10/18 14:17:30;;;;;;;6.57;1.52;;;17.20;73.90;;;;;;4754531;30;20064;-75
2022/10/18 14:20:02;;;;;;;7.03;1.23;;;17.30;74.00;;;;;;4754033;30;20071;-76
2022/10/18 14:22:30;;;;;;;6.95;1.33;;;17.30;74.00;;;;;;4754108;30;20131;-74
2022/10/18 14:24:58;;;;;;;4.85;1.17;;;17.30;74.20;;;;;;4754325;30;20130;-74
2022/10/18 14:27:25;;;;;;;5.63;1.35;;;17.30;74.20;;;;;;4754874;30;20110;-75
2022/10/18 14:30:08;;;;;;;6.90;1.73;;;17.30;74.30;;;;;;4754087;30;20146;-74
2022/10/18 14:32:34;;;;;;;6.47;2.08;;;17.30;74.30;;;;;;4754018;30;20349;-73
2022/10/18 14:35:00;;;;;;;7.43;1.58;;;17.30;74.40;;;;;;4754204;30;20044;-73
2022/10/18 14:37:34;;;;;;;7.28;1.38;;;17.30;74.40;;;;;;4755671;30;20070;-73
2022/10/18 14:40:03;;;;;;;5.50;1.25;;;17.30;74.50;;;;;;4757645;30;20135;-74
2022/10/18 14:42:29;;;;;;;6.57;1.38;;;17.40;74.50;;;;;;4742014;30;20153;-77
2022/10/18 14:44:55;;;;;;;4.25;1.20;;;17.30;74.50;;;;;;4741989;30;20047;-75
2022/10/18 14:47:24;;;;;;;7.95;1.63;;;17.30;74.60;;;;;;4741817;30;20052;-72
2022/10/18 14:49:53;;;;;;;4.13;0.80;;;17.30;74.80;;;;;;4741678;30;20429;-73
2022/10/18 14:52:25;;;;;;;8.95;1.30;;;17.40;75.10;;;;;;4757064;30;20048;-73
2022/10/18 14:54:54;;;;;;;5.90;1.00;;;17.30;75.30;;;;;;4757317;30;20064;-74
2022/10/18 14:57:33;;;;;;;6.82;1.27;;;17.40;75.60;;;;;;4757671;30;20418;-74
2022/10/18 15:00:03;;;;;;;8.65;1.23;;;17.40;75.80;;;;;;4742001;30;20052;-73
2022/10/18 15:02:31;;;;;;;11.73;1.95;;;17.40;75.80;;;;;;4741435;30;20097;-77
2022/10/18 15:05:22;;;;;;;12.23;1.40;;;17.40;76.00;;;;;;4756938;30;20060;-77
2022/10/18 15:07:50;;;;;;;8.10;1.80;;;17.40;75.70;;;;;;4757146;30;20117;-78
2022/10/18 15:10:18;;;;;;;7.07;1.20;;;17.30;74.50;;;;;;4756595;30;20463;-79
2022/10/18 15:12:44;;;;;;;17.52;2.05;;;17.30;72.80;;;;;;4755952;30;20061;-78
2022/10/18 15:15:26;;;;;;;8.13;1.02;;;17.30;70.80;;;;;;4741921;30;20075;-75
2022/10/18 15:17:52;;;;;;;8.82;1.00;;;17.20;69.50;;;;;;4740492;30;20055;-73
2022/10/18 15:20:23;;;;;;;8.60;1.58;;;17.10;70.50;;;;;;4754554;30;20060;-74
2022/10/18 15:22:50;;;;;;;10.77;1.20;;;17.10;71.30;;;;;;4740539;30;20209;-71
2022/10/18 15:25:27;;;;;;;11.20;1.38;;;17.10;71.80;;;;;;4756754;30;20052;-73
2022/10/18 15:27:56;;;;;;;10.48;1.70;;;17.10;72.20;;;;;;4756259;30;20063;-71
2022/10/18 15:30:26;;;;;;;9.50;1.40;;;17.10;72.60;;;;;;4756691;30;20059;-71
2022/10/18 15:32:55;;;;;;;7.22;0.90;;;17.10;72.40;;;;;;4756488;30;20068;-71
2022/10/18 15:35:34;;;;;;;7.88;1.20;;;17.10;72.50;;;;;;4755800;30;20060;-73
2022/10/18 15:38:12;;;;;;;7.72;1.20;;;17.10;72.70;;;;;;4757000;30;20051;-71
2022/10/18 15:40:38;;;;;;;9.05;1.10;;;17.20;72.70;;;;;;4757010;30;20082;-72
2022/10/18 15:43:24;;;;;;;6.45;0.90;;;17.20;72.70;;;;;;4754146;30;20055;-72
2022/10/18 15:45:58;;;;;;;8.65;1.23;;;17.20;72.60;;;;;;4756781;30;20388;-73
2022/10/18 15:48:39;;;;;;;5.43;0.93;;;17.20;72.20;;;;;;4756210;30;20067;-72
2022/10/18 15:51:31;;;;;;;9.10;1.38;;;17.20;71.10;;;;;;4757179;30;20113;-72
2022/10/18 15:53:57;;;;;;;4.68;0.70;;;17.20;71.10;;;;;;4738949;30;20094;-71
2022/10/18 15:56:27;;;;;;;6.50;1.00;;;17.20;71.50;;;;;;4738877;30;20075;-72
2022/10/18 15:58:55;;;;;;;4.78;0.95;;;17.20;71.80;;;;;;4738711;30;20099;-71
2022/10/18 16:01:43;;;;;;;7.18;1.25;;;17.20;72.10;;;;;;4740046;30;20052;-71
2022/10/18 16:04:27;;;;;;;7.35;1.00;;;17.20;72.50;;;;;;4756772;30;20092;-71
2022/10/18 16:06:54;;;;;;;8.93;0.80;;;17.20;73.40;;;;;;4740211;30;20060;-78
2022/10/18 16:09:22;;;;;;;9.48;1.08;;;17.20;73.70;;;;;;4756207;30;20345;-79
2022/10/18 16:11:50;;;;;;;20.13;1.48;;;17.20;72.90;;;;;;4751911;30;20055;-78
2022/10/18 16:14:25;;;;;;;5.47;0.68;;;17.20;71.80;;;;;;4738288;30;20067;-77
2022/10/18 16:17:01;;;;;;;7.43;0.70;;;17.20;70.80;;;;;;4723111;30;20052;-78
2022/10/18 16:19:27;;;;;;;7.63;0.98;;;17.10;70.10;;;;;;4738364;30;20099;-72
2022/10/18 16:21:53;;;;;;;6.43;1.10;;;17.10;70.20;;;;;;4742611;30;20473;-74
2022/10/18 16:24:25;;;;;;;5.07;0.80;;;17.20;70.40;;;;;;4756008;30;20132;-81
2022/10/18 16:26:50;;;;;;;10.65;1.10;;;17.10;70.50;;;;;;4755866;30;20407;-74
2022/10/18 16:29:20;;;;;;;5.40;0.77;;;17.10;70.70;;;;;;4740126;30;20054;-75
2022/10/18 16:31:46;;;;;;;13.05;1.40;;;17.20;70.90;;;;;;4738571;30;20559;-74
2022/10/18 16:34:13;;;;;;;10.13;1.15;;;17.20;71.20;;;;;;4737808;30;20045;-74
2022/10/18 16:36:40;;;;;;;21.00;2.30;;;17.20;71.50;;;;;;4737371;30;20132;-74
2022/10/18 16:39:12;;;;;;;21.75;2.65;;;17.20;71.70;;;;;;4737674;30;20196;-73
2022/10/18 16:41:37;;;;;;;19.88;2.63;;;17.20;72.00;;;;;;4736685;30;20100;-73
2022/10/18 16:44:03;;;;;;;21.02;2.17;;;17.20;72.30;;;;;;4738925;30;20056;-78
2022/10/18 16:46:31;;;;;;;14.48;1.75;;;17.20;73.00;;;;;;4745699;30;20389;-78
2022/10/18 16:48:57;;;;;;;11.68;1.60;;;17.20;71.40;;;;;;4754896;30;20357;-77
2022/10/18 16:51:23;;;;;;;28.83;2.83;;;17.20;70.20;;;;;;4754417;30;20056;-74
2022/10/18 16:53:49;;;;;;;22.45;1.95;;;17.10;70.40;;;;;;4754475;30;20060;-72
2022/10/18 16:56:34;;;;;;;13.77;1.20;;;17.10;70.60;;;;;;4754665;30;20305;-73
2022/10/18 16:59:00;;;;;;;6.40;1.48;;;17.10;70.50;;;;;;4750386;30;20143;-78
2022/10/18 18:35:52;;;;;;;6.80;0.70;;;16.50;67.30;;;;;;5564146;24;20431;-73
2022/10/18 18:38:18;;;;;;;7.00;0.77;;;16.30;67.90;;;;;;4789023;30;20067;-76
2022/10/18 18:40:43;;;;;;;5.63;0.70;;;16.30;69.40;;;;;;4774118;30;20536;-73
2022/10/18 18:43:09;;;;;;;5.13;0.50;;;16.30;69.20;;;;;;4789430;30;20126;-73
2022/10/18 18:45:35;;;;;;;6.28;0.70;;;16.40;69.60;;;;;;4789108;30;20052;-72
2022/10/18 18:48:00;;;;;;;3.95;0.40;;;16.40;69.90;;;;;;4788773;30;20064;-71
2022/10/18 18:50:26;;;;;;;2.75;0.60;;;16.40;70.10;;;;;;4789535;30;20063;-72
2022/10/18 18:52:54;;;;;;;4.05;0.40;;;16.50;70.30;;;;;;4789712;30;20051;-71
2022/10/18 18:55:19;;;;;;;3.78;0.40;;;16.50;70.50;;;;;;4788968;30;20118;-74
2022/10/18 18:57:45;;;;;;;3.22;0.50;;;16.50;70.60;;;;;;4789398;30;20130;-75
2022/10/18 19:00:12;;;;;;;3.35;0.30;;;16.60;70.70;;;;;;4789162;30;20597;-75
2022/10/18 19:02:37;;;;;;;2.72;0.50;;;16.70;70.70;;;;;;4789502;30;20047;-73
2022/10/18 19:05:03;;;;;;;4.20;0.40;;;16.70;70.70;;;;;;4788684;30;20066;-73
2022/10/18 19:07:29;;;;;;;5.85;0.52;;;16.70;70.60;;;;;;4772698;30;20157;-72
2022/10/18 19:09:55;;;;;;;4.28;0.30;;;16.80;70.70;;;;;;4789071;30;20493;-77
2022/10/18 19:12:21;;;;;;;5.10;0.40;;;16.80;70.80;;;;;;4773061;30;20507;-72
2022/10/18 19:14:46;;;;;;;3.60;0.40;;;16.80;70.70;;;;;;4789494;30;20047;-71
2022/10/18 19:17:12;;;;;;;3.97;0.40;;;16.80;70.60;;;;;;4788649;30;20074;-72
2022/10/18 19:19:42;;;;;;;5.95;0.60;;;16.80;70.50;;;;;;4789127;30;20044;-72
2022/10/18 19:22:09;;;;;;;2.47;0.30;;;16.80;70.50;;;;;;4789257;29;20051;-74
2022/10/18 19:24:36;;;;;;;4.63;0.73;;;16.80;70.60;;;;;;4791937;30;20062;-71
2022/10/18 19:27:11;;;;;;;3.15;0.35;;;16.80;70.60;;;;;;4792452;30;20538;-72
2022/10/18 19:29:39;;;;;;;3.53;0.57;;;16.80;70.70;;;;;;4792310;30;20039;-71
2022/10/18 19:32:10;;;;;;;2.33;0.20;;;16.80;70.80;;;;;;4776856;30;20433;-72
2022/10/18 19:34:36;;;;;;;4.22;0.50;;;16.80;70.90;;;;;;4792474;30;20047;-73
2022/10/18 19:37:03;;;;;;;2.63;0.40;;;16.80;70.90;;;;;;4792134;30;20063;-78
2022/10/18 19:39:33;;;;;;;4.35;0.47;;;16.80;71.00;;;;;;4776657;30;20051;-73
2022/10/18 19:42:02;;;;;;;2.42;0.38;;;16.80;70.90;;;;;;4792615;30;20055;-71
2022/10/18 19:44:30;;;;;;;4.32;0.47;;;16.80;70.50;;;;;;4791606;30;20134;-74
2022/10/18 19:46:56;;;;;;;5.75;0.70;;;16.90;69.80;;;;;;4792955;30;20051;-73
2022/10/18 19:49:23;;;;;;;6.18;0.40;;;16.80;67.80;;;;;;4791013;30;20105;-72
2022/10/18 19:51:48;;;;;;;6.97;0.60;;;16.80;67.80;;;;;;4791826;30;20116;-73
2022/10/18 19:54:15;;;;;;;2.95;0.68;;;16.70;67.20;;;;;;4792573;29;20052;-71
2022/10/18 19:56:41;;;;;;;4.38;0.65;;;16.60;67.30;;;;;;4775751;30;20540;-73
2022/10/18 19:59:08;;;;;;;4.32;0.52;;;16.50;67.70;;;;;;4792410;30;20051;-71
2022/10/18 20:01:34;;;;;;;5.07;0.90;;;16.40;68.00;;;;;;4791509;30;20067;-72
2022/10/18 20:04:00;;;;;;;5.03;0.90;;;16.30;68.40;;;;;;4792373;30;20055;-72
2022/10/18 20:06:25;;;;;;;5.13;0.73;;;16.20;68.80;;;;;;4792033;30;20371;-72
2022/10/18 20:08:51;;;;;;;6.60;0.73;;;16.20;69.20;;;;;;4792145;30;20062;-73
2022/10/18 20:11:24;;;;;;;5.40;0.90;;;16.20;69.70;;;;;;4791754;30;20051;-74
2022/10/18 20:13:50;;;;;;;7.63;0.83;;;16.10;70.00;;;;;;4776264;30;20067;-75
2022/10/18 20:16:19;;;;;;;4.78;0.95;;;16.10;70.20;;;;;;4792074;30;20355;-72
2022/10/18 20:18:45;;;;;;;5.82;0.88;;;16.10;70.40;;;;;;4791736;30;20054;-72
2022/10/18 20:21:13;;;;;;;4.47;0.68;;;16.00;70.50;;;;;;4791935;30;20059;-73
2022/10/18 20:23:40;;;;;;;5.07;1.70;;;16.00;70.50;;;;;;4791511;30;20051;-73
2022/10/18 20:26:12;;;;;;;3.90;0.90;;;16.00;70.50;;;;;;4775619;30;20043;-72
2022/10/18 20:28:38;;;;;;;8.23;1.13;;;16.00;70.50;;;;;;4791078;30;20514;-70
2022/10/18 20:31:07;;;;;;;6.45;1.02;;;15.90;70.40;;;;;;4790475;30;20150;-71
